Time;durP1;ratioP1;P1;durP2;ratioP2;P2;SDS_P1;SDS_P2;PMS_P1;PMS_P2;Temp;Humidity;BMP_temperature;BMP_pressure;BME280_temperature;BME280_humidity;BME280_pressure;Samples;Min_cycle;Max_cycle;Signal;HPM_P1;HPM_P2
2021/01/26 00:01:29;;;;;;;0.68;0.65;;;16.50;44.60;;;;;;6202571;23;20194;-79
2021/01/26 00:03:56;;;;;;;1.40;0.80;;;16.50;44.70;;;;;;6203946;23;20138;-78
2021/01/26 00:06:26;;;;;;;2.75;0.98;;;16.50;44.60;;;;;;6203272;23;20130;-79
2021/01/26 00:08:52;;;;;;;0.63;0.63;;;16.60;44.70;;;;;;6203669;23;20130;-79
2021/01/26 00:11:18;;;;;;;1.92;0.70;;;16.50;44.60;;;;;;6202951;23;20137;-78
2021/01/26 00:13:45;;;;;;;1.02;0.60;;;16.50;44.60;;;;;;6203170;23;20220;-78
2021/01/26 00:16:20;;;;;;;2.50;0.77;;;16.60;44.70;;;;;;6178605;23;20130;-78
2021/01/26 00:18:48;;;;;;;0.80;0.70;;;16.50;44.70;;;;;;6230496;23;20133;-79
2021/01/26 00:21:15;;;;;;;0.98;0.80;;;16.50;44.70;;;;;;6203304;23;20177;-79
2021/01/26 00:23:40;;;;;;;1.10;0.90;;;16.50;44.70;;;;;;6203037;23;20134;-79
2021/01/26 00:26:06;;;;;;;0.85;0.70;;;16.50;44.60;;;;;;6203283;23;20134;-78
2021/01/26 00:28:33;;;;;;;1.13;0.95;;;16.50;44.60;;;;;;6178527;23;20214;-78
2021/01/26 00:30:59;;;;;;;0.70;0.70;;;16.50;44.60;;;;;;6177998;23;20177;-79
2021/01/26 00:33:27;;;;;;;1.17;0.88;;;16.50;44.80;;;;;;6153538;23;20170;-79
2021/01/26 00:35:53;;;;;;;1.27;0.70;;;16.50;44.90;;;;;;6178437;23;20236;-79
2021/01/26 00:38:20;;;;;;;0.90;0.80;;;16.50;44.80;;;;;;6153734;23;20209;-80
2021/01/26 00:40:46;;;;;;;1.05;0.90;;;16.40;44.90;;;;;;6229569;23;20685;-79
2021/01/26 00:43:12;;;;;;;0.80;0.65;;;16.40;44.90;;;;;;6179029;23;20154;-78
2021/01/26 00:45:38;;;;;;;0.80;0.80;;;16.40;44.90;;;;;;6153650;23;20196;-79
2021/01/26 00:48:05;;;;;;;2.05;0.73;;;16.40;44.90;;;;;;6154202;23;20605;-79
2021/01/26 00:50:31;;;;;;;0.75;0.75;;;16.50;44.90;;;;;;6178053;23;20198;-78
2021/01/26 00:52:57;;;;;;;1.10;1.00;;;16.50;44.90;;;;;;6178612;23;20153;-79
2021/01/26 00:55:26;;;;;;;1.08;0.70;;;16.50;44.80;;;;;;6179124;23;20189;-78
2021/01/26 00:57:54;;;;;;;0.85;0.75;;;16.50;44.70;;;;;;6203234;23;20141;-79
2021/01/26 01:00:41;;;;;;;0.70;0.52;;;16.50;44.80;;;;;;6203953;23;20138;-79
2021/01/26 01:03:08;;;;;;;0.80;0.70;;;16.50;44.90;;;;;;6176418;23;20228;-79
2021/01/26 01:05:38;;;;;;;0.95;0.80;;;16.40;44.90;;;;;;6204020;23;20225;-78
2021/01/26 01:08:06;;;;;;;1.65;0.90;;;16.40;44.90;;;;;;6203385;23;20134;-78
2021/01/26 01:10:36;;;;;;;0.90;0.80;;;16.50;44.80;;;;;;6203374;23;20141;-78
2021/01/26 01:13:03;;;;;;;1.00;0.70;;;16.50;44.80;;;;;;6155086;23;20142;-78
2021/01/26 01:15:28;;;;;;;0.77;0.73;;;16.50;44.90;;;;;;6154515;23;20141;-78
2021/01/26 01:17:55;;;;;;;0.88;0.80;;;16.40;44.90;;;;;;6203436;23;20134;-78
2021/01/26 01:20:22;;;;;;;0.90;0.80;;;16.40;44.90;;;;;;6229497;23;20165;-78
2021/01/26 01:22:50;;;;;;;1.92;0.68;;;16.40;45.00;;;;;;6179048;23;20157;-79
2021/01/26 01:25:18;;;;;;;0.80;0.60;;;16.40;45.00;;;;;;6203182;23;20190;-79
2021/01/26 01:27:45;;;;;;;0.82;0.73;;;16.40;45.70;;;;;;6202717;23;20134;-79
2021/01/26 01:30:19;;;;;;;1.20;0.80;;;16.40;45.10;;;;;;6178597;23;20145;-79
2021/01/26 01:32:45;;;;;;;1.15;0.80;;;16.40;45.10;;;;;;6178267;23;20189;-78
2021/01/26 01:35:11;;;;;;;1.10;0.82;;;16.40;45.00;;;;;;6153835;23;20283;-79
2021/01/26 01:37:42;;;;;;;0.85;0.80;;;16.40;45.10;;;;;;6154030;23;20149;-78
2021/01/26 01:40:12;;;;;;;2.30;0.85;;;16.40;45.10;;;;;;6178560;23;20153;-79
2021/01/26 01:42:40;;;;;;;0.88;0.70;;;16.40;45.20;;;;;;6202920;23;20162;-78
2021/01/26 01:45:10;;;;;;;1.20;0.90;;;16.40;45.00;;;;;;6203173;23;20620;-78
2021/01/26 01:48:01;;;;;;;0.80;0.80;;;16.40;45.00;;;;;;6177677;23;20150;-80
2021/01/26 01:50:31;;;;;;;0.85;0.60;;;16.40;45.10;;;;;;6230149;23;20241;-78
2021/01/26 01:53:22;;;;;;;1.50;0.77;;;16.40;45.10;;;;;;6153564;23;20222;-80
2021/01/26 01:55:56;;;;;;;0.90;0.90;;;16.40;45.00;;;;;;6202494;23;20139;-79
2021/01/26 01:58:29;;;;;;;1.10;0.90;;;16.40;45.00;;;;;;6229330;23;20130;-79
2021/01/26 02:01:04;;;;;;;1.65;0.70;;;16.40;45.10;;;;;;6153863;23;20201;-78
2021/01/26 02:03:33;;;;;;;0.70;0.70;;;16.40;45.10;;;;;;6203110;23;20146;-79
2021/01/26 02:06:00;;;;;;;3.20;0.68;;;16.30;45.20;;;;;;6202972;23;20474;-78
2021/01/26 02:08:28;;;;;;;0.75;0.65;;;16.30;45.20;;;;;;6203605;23;20169;-78
2021/01/26 02:10:55;;;;;;;1.20;0.77;;;16.30;45.30;;;;;;6229766;23;20188;-78
2021/01/26 02:13:21;;;;;;;1.45;0.73;;;16.30;45.20;;;;;;6202442;23;20130;-78
2021/01/26 02:15:46;;;;;;;0.88;0.80;;;16.30;45.20;;;;;;6203829;23;20198;-78
2021/01/26 02:19:07;;;;;;;1.35;0.75;;;16.30;45.30;;;;;;6178713;23;20554;-79
2021/01/26 02:22:03;;;;;;;1.13;0.63;;;16.30;45.20;;;;;;6055069;23;20244;-78
2021/01/26 02:25:06;;;;;;;1.02;0.80;;;16.30;45.20;;;;;;6059918;23;20141;-78
2021/01/26 02:27:51;;;;;;;1.65;0.88;;;16.30;45.10;;;;;;6079961;23;20137;-78
2021/01/26 02:30:40;;;;;;;1.02;0.70;;;16.30;45.20;;;;;;6079896;23;20157;-79
2021/01/26 02:33:39;;;;;;;0.82;0.82;;;16.30;45.30;;;;;;6052328;23;20161;-78
2021/01/26 02:36:31;;;;;;;1.33;0.90;;;16.40;45.20;;;;;;6055045;23;20545;-78
2021/01/26 02:39:24;;;;;;;0.82;0.60;;;16.40;45.10;;;;;;6022028;23;20151;-78
2021/01/26 02:42:07;;;;;;;1.35;1.00;;;16.30;45.20;;;;;;6022002;23;20175;-78
2021/01/26 02:44:45;;;;;;;0.68;0.52;;;16.30;45.30;;;;;;6022535;23;20166;-78
2021/01/26 02:47:41;;;;;;;0.80;0.80;;;16.30;45.30;;;;;;6021776;23;20637;-78
2021/01/26 02:50:22;;;;;;;0.70;0.65;;;16.20;45.40;;;;;;6022103;23;20151;-79
2021/01/26 02:53:04;;;;;;;0.80;0.73;;;16.30;45.30;;;;;;6022407;23;20618;-79
2021/01/26 02:56:34;;;;;;;1.17;0.80;;;16.30;45.20;;;;;;6083579;23;20166;-78
2021/01/26 02:59:36;;;;;;;0.93;0.60;;;16.30;45.30;;;;;;5993648;24;20159;-78
2021/01/26 03:02:07;;;;;;;1.20;0.65;;;16.40;45.10;;;;;;5938435;24;20166;-78
2021/01/26 03:04:50;;;;;;;0.80;0.60;;;16.40;45.10;;;;;;5915892;24;20164;-78
2021/01/26 03:07:18;;;;;;;1.30;0.70;;;16.40;45.10;;;;;;5916466;24;20153;-79
2021/01/26 03:09:44;;;;;;;0.68;0.65;;;16.40;45.10;;;;;;5916125;24;20271;-77
2021/01/26 03:12:40;;;;;;;0.88;0.80;;;16.40;45.20;;;;;;5916263;24;20167;-78
2021/01/26 03:15:16;;;;;;;1.83;0.70;;;16.30;45.30;;;;;;5832102;24;20199;-77
2021/01/26 03:18:08;;;;;;;1.00;0.75;;;16.30;45.30;;;;;;5811066;24;20216;-79
2021/01/26 03:20:55;;;;;;;0.70;0.60;;;16.30;45.30;;;;;;5831217;24;20159;-78
2021/01/26 03:23:43;;;;;;;0.68;0.68;;;16.30;45.30;;;;;;5831487;24;20159;-79
2021/01/26 03:26:29;;;;;;;0.75;0.60;;;16.30;45.20;;;;;;5830794;24;20156;-79
2021/01/26 03:29:21;;;;;;;0.80;0.80;;;16.30;45.20;;;;;;5840435;24;20178;-78
2021/01/26 03:31:52;;;;;;;1.48;0.80;;;16.30;45.30;;;;;;5885340;24;20154;-78
2021/01/26 03:34:18;;;;;;;0.60;0.50;;;16.30;45.20;;;;;;5893749;24;20245;-78
2021/01/26 03:36:51;;;;;;;1.98;0.82;;;16.30;45.20;;;;;;5940535;24;20142;-77
2021/01/26 03:39:16;;;;;;;0.88;0.68;;;16.30;45.20;;;;;;5999286;23;20158;-78
2021/01/26 03:41:42;;;;;;;0.70;0.70;;;16.30;45.30;;;;;;6057162;23;20161;-79
2021/01/26 03:44:16;;;;;;;0.73;0.70;;;16.30;45.30;;;;;;6057025;23;20161;-78
2021/01/26 03:47:00;;;;;;;1.23;0.90;;;16.30;45.30;;;;;;6034094;23;20145;-78
2021/01/26 03:49:38;;;;;;;0.70;0.70;;;16.30;45.40;;;;;;6057257;23;20197;-78
2021/01/26 03:52:19;;;;;;;1.00;0.50;;;16.30;45.30;;;;;;6149015;23;20147;-78
2021/01/26 03:55:05;;;;;;;1.13;0.70;;;16.30;45.30;;;;;;6169795;23;20654;-78
2021/01/26 03:57:51;;;;;;;1.20;0.65;;;16.30;45.30;;;;;;6171842;23;20132;-77
2021/01/26 04:00:35;;;;;;;1.35;0.82;;;16.30;45.40;;;;;;6169955;23;20218;-78
2021/01/26 04:03:23;;;;;;;0.55;0.55;;;16.30;45.20;;;;;;6169307;23;20202;-77
2021/01/26 04:06:26;;;;;;;0.60;0.60;;;16.30;45.30;;;;;;6170579;23;20196;-77
2021/01/26 04:08:57;;;;;;;3.55;0.70;;;16.30;45.30;;;;;;6170385;23;20143;-78
2021/01/26 04:11:54;;;;;;;0.63;0.60;;;16.30;45.40;;;;;;6144044;23;20140;-78
2021/01/26 04:14:30;;;;;;;1.88;0.73;;;16.30;45.40;;;;;;6161282;23;20194;-79
2021/01/26 04:17:00;;;;;;;0.82;0.80;;;16.30;45.40;;;;;;6145016;23;20139;-78
2021/01/26 04:19:29;;;;;;;0.82;0.77;;;16.30;45.30;;;;;;6169922;23;20131;-78
2021/01/26 04:21:55;;;;;;;0.60;0.60;;;16.30;45.30;;;;;;6120580;23;20140;-79
2021/01/26 04:24:21;;;;;;;1.35;0.60;;;16.30;45.30;;;;;;6119409;23;20139;-78
2021/01/26 04:26:48;;;;;;;0.60;0.60;;;16.30;45.30;;;;;;6145433;23;20191;-78
2021/01/26 04:29:15;;;;;;;0.63;0.63;;;16.20;45.50;;;;;;6145112;23;20226;-78
2021/01/26 04:31:40;;;;;;;0.80;0.63;;;16.30;45.30;;;;;;6169716;23;20572;-78
2021/01/26 04:34:06;;;;;;;1.27;0.80;;;16.20;45.40;;;;;;6173306;23;20178;-77
2021/01/26 04:36:41;;;;;;;0.90;0.75;;;16.30;45.30;;;;;;6150226;23;20143;-78
2021/01/26 04:39:07;;;;;;;0.98;0.80;;;16.30;45.20;;;;;;6199896;23;20150;-78
2021/01/26 04:41:50;;;;;;;0.85;0.70;;;16.30;45.20;;;;;;6199694;23;20139;-78
2021/01/26 04:45:01;;;;;;;0.98;0.70;;;16.30;45.20;;;;;;6199226;23;20170;-78
2021/01/26 04:47:57;;;;;;;0.60;0.60;;;16.20;45.30;;;;;;6198753;23;20195;-78
2021/01/26 04:50:29;;;;;;;1.25;0.70;;;16.20;45.40;;;;;;6200719;23;20127;-78
2021/01/26 04:53:00;;;;;;;0.77;0.60;;;16.30;45.30;;;;;;6200957;23;20169;-78
2021/01/26 04:55:55;;;;;;;0.80;0.70;;;16.30;45.20;;;;;;6199680;23;20178;-78
2021/01/26 04:58:38;;;;;;;0.82;0.60;;;16.30;45.20;;;;;;6201657;23;20204;-78
2021/01/26 05:01:08;;;;;;;1.92;0.52;;;16.30;45.00;;;;;;6177712;23;20165;-78
2021/01/26 05:04:00;;;;;;;0.52;0.50;;;16.30;44.90;;;;;;6200010;23;20134;-78
2021/01/26 05:06:32;;;;;;;0.70;0.50;;;16.30;44.90;;;;;;6081082;23;20157;-78
2021/01/26 05:08:58;;;;;;;0.45;0.45;;;16.30;45.00;;;;;;6057373;23;20205;-78
2021/01/26 05:11:28;;;;;;;1.02;0.70;;;16.30;44.90;;;;;;6033688;23;20209;-77
2021/01/26 05:14:05;;;;;;;0.50;0.50;;;16.30;44.90;;;;;;6056686;23;20361;-78
2021/01/26 05:16:32;;;;;;;0.60;0.60;;;16.30;44.80;;;;;;6057063;23;20595;-78
2021/01/26 05:19:06;;;;;;;0.80;0.60;;;16.30;44.80;;;;;;6080926;23;20148;-78
2021/01/26 05:21:36;;;;;;;0.57;0.57;;;16.40;44.80;;;;;;6081531;23;20146;-78
2021/01/26 05:24:19;;;;;;;0.85;0.70;;;16.30;44.80;;;;;;6081321;23;20153;-78
2021/01/26 05:26:45;;;;;;;0.63;0.63;;;16.40;44.70;;;;;;6080042;23;20505;-78
2021/01/26 05:29:13;;;;;;;1.05;0.70;;;16.30;44.80;;;;;;6057640;23;20146;-78
2021/01/26 05:31:41;;;;;;;0.70;0.60;;;16.30;44.60;;;;;;6056232;23;20149;-78
2021/01/26 05:34:11;;;;;;;0.70;0.70;;;16.30;44.50;;;;;;6056720;23;20169;-78
2021/01/26 05:36:46;;;;;;;0.57;0.57;;;16.30;44.40;;;;;;6056503;23;20256;-78
2021/01/26 05:39:34;;;;;;;0.60;0.50;;;16.30;44.50;;;;;;6033258;23;20160;-77
2021/01/26 05:42:02;;;;;;;0.50;0.50;;;16.40;44.20;;;;;;5995199;24;20155;-77
2021/01/26 05:44:30;;;;;;;0.90;0.70;;;16.40;44.10;;;;;;6104194;23;20643;-77
2021/01/26 05:46:57;;;;;;;0.60;0.60;;;16.40;44.20;;;;;;6139134;23;20152;-78
2021/01/26 05:49:37;;;;;;;1.27;0.60;;;16.40;44.20;;;;;;6138832;23;20128;-77
2021/01/26 05:52:11;;;;;;;1.63;0.60;;;16.50;43.90;;;;;;6114606;23;20151;-77
2021/01/26 05:54:44;;;;;;;0.93;0.63;;;16.40;44.00;;;;;;6139516;23;20215;-77
2021/01/26 05:57:10;;;;;;;0.82;0.70;;;16.40;44.00;;;;;;6068078;23;20168;-77
2021/01/26 05:59:38;;;;;;;0.60;0.52;;;16.40;44.00;;;;;;6090001;23;20183;-77
2021/01/26 06:02:14;;;;;;;0.93;0.65;;;16.40;44.00;;;;;;6091306;23;20176;-79
2021/01/26 06:04:41;;;;;;;1.15;0.80;;;16.40;43.90;;;;;;6089682;23;20151;-77
2021/01/26 06:07:37;;;;;;;0.55;0.52;;;16.40;44.00;;;;;;6090356;23;20156;-78
2021/01/26 06:10:36;;;;;;;1.55;0.70;;;16.30;44.00;;;;;;6093689;23;20232;-77
2021/01/26 06:13:29;;;;;;;1.20;0.60;;;16.30;43.80;;;;;;6114581;23;20148;-77
2021/01/26 06:16:11;;;;;;;0.60;0.55;;;16.40;43.80;;;;;;6113787;23;20206;-78
2021/01/26 06:18:55;;;;;;;0.82;0.60;;;16.40;43.90;;;;;;6139562;23;20182;-77
2021/01/26 06:21:22;;;;;;;0.80;0.60;;;16.40;43.70;;;;;;6198806;23;20146;-77
2021/01/26 06:23:48;;;;;;;0.80;0.60;;;16.40;43.50;;;;;;6199073;23;20213;-77
2021/01/26 06:26:13;;;;;;;0.75;0.50;;;16.40;43.70;;;;;;6200567;23;20582;-77
2021/01/26 06:29:00;;;;;;;0.98;0.60;;;16.40;43.70;;;;;;6174079;23;20139;-77
2021/01/26 06:31:40;;;;;;;1.15;0.60;;;16.40;43.70;;;;;;6198850;23;20153;-78
2021/01/26 06:34:28;;;;;;;1.27;0.80;;;16.30;43.50;;;;;;6202005;23;20185;-77
2021/01/26 06:37:28;;;;;;;0.68;0.50;;;16.40;43.50;;;;;;6230564;23;20141;-78
2021/01/26 06:40:11;;;;;;;0.70;0.68;;;16.40;43.40;;;;;;6204058;23;20173;-80
2021/01/26 06:42:48;;;;;;;0.95;0.75;;;16.50;43.20;;;;;;6203976;23;20158;-78
2021/01/26 06:45:53;;;;;;;0.50;0.50;;;16.50;43.20;;;;;;6230923;23;20141;-78
2021/01/26 06:48:45;;;;;;;0.40;0.40;;;16.50;43.10;;;;;;6232616;23;20206;-78
2021/01/26 06:51:16;;;;;;;0.60;0.40;;;16.50;43.10;;;;;;6232677;23;20130;-78
2021/01/26 06:54:08;;;;;;;0.85;0.70;;;16.40;43.30;;;;;;6232429;23;20166;-78
2021/01/26 06:57:07;;;;;;;0.68;0.45;;;16.40;43.10;;;;;;6233032;23;20569;-78
2021/01/26 07:00:21;;;;;;;0.70;0.60;;;16.40;43.30;;;;;;6205369;23;20143;-78
2021/01/26 07:02:47;;;;;;;0.63;0.50;;;16.50;43.50;;;;;;6083032;23;20286;-78
2021/01/26 07:05:45;;;;;;;0.50;0.50;;;16.40;43.70;;;;;;6082256;23;20142;-78
2021/01/26 07:08:52;;;;;;;0.40;0.40;;;16.50;44.60;;;;;;6081057;23;20144;-78
2021/01/26 07:11:24;;;;;;;1.80;0.70;;;16.50;43.60;;;;;;6082053;23;20570;-78
2021/01/26 07:14:15;;;;;;;9.23;2.20;;;16.50;43.90;;;;;;6082273;23;20192;-78
2021/01/26 07:17:06;;;;;;;6.57;1.95;;;16.60;43.60;;;;;;6030882;23;20145;-79
2021/01/26 07:19:48;;;;;;;10.88;1.73;;;16.60;43.30;;;;;;6057627;23;20150;-77
2021/01/26 07:22:42;;;;;;;7.50;2.17;;;16.60;43.20;;;;;;6081446;23;20648;-77
2021/01/26 07:25:42;;;;;;;6.47;1.65;;;16.60;43.10;;;;;;6081614;23;20172;-77
2021/01/26 07:28:13;;;;;;;3.22;1.13;;;16.60;43.00;;;;;;6056310;23;20301;-79
2021/01/26 07:31:08;;;;;;;6.55;1.90;;;16.60;43.00;;;;;;6058575;23;20134;-78
2021/01/26 07:34:02;;;;;;;1.50;0.93;;;16.60;42.90;;;;;;6057782;23;20249;-78
2021/01/26 07:36:42;;;;;;;2.08;1.08;;;16.60;42.80;;;;;;6081472;23;20614;-78
2021/01/26 07:39:19;;;;;;;1.80;1.02;;;16.60;42.80;;;;;;6129063;23;20150;-78
2021/01/26 07:42:15;;;;;;;1.95;0.85;;;16.60;42.90;;;;;;6205491;23;20130;-77
2021/01/26 07:45:02;;;;;;;1.23;0.82;;;16.50;42.80;;;;;;6201959;23;20225;-76
2021/01/26 07:47:39;;;;;;;2.47;0.82;;;16.50;42.70;;;;;;6205456;23;20134;-77
2021/01/26 07:50:15;;;;;;;1.27;0.80;;;16.60;42.50;;;;;;6180275;23;20161;-77
2021/01/26 07:52:45;;;;;;;2.05;0.85;;;16.60;42.70;;;;;;6180763;23;20137;-79
2021/01/26 07:55:18;;;;;;;1.25;0.98;;;16.60;42.50;;;;;;6179830;23;20168;-78
2021/01/26 07:57:50;;;;;;;4.72;1.13;;;16.70;42.40;;;;;;6156613;23;20161;-77
2021/01/26 08:00:29;;;;;;;2.65;0.88;;;16.60;42.60;;;;;;6231481;23;20593;-77
2021/01/26 08:03:04;;;;;;;1.58;0.90;;;16.60;42.70;;;;;;6206814;23;20137;-77
2021/01/26 08:05:48;;;;;;;1.88;0.95;;;16.60;42.60;;;;;;6204670;23;20168;-79
2021/01/26 08:08:24;;;;;;;2.47;1.00;;;16.70;42.50;;;;;;6178660;23;20473;-77
2021/01/26 08:11:21;;;;;;;1.40;0.70;;;16.60;42.40;;;;;;6204316;23;20158;-78
2021/01/26 08:13:55;;;;;;;1.83;0.90;;;16.60;42.50;;;;;;6201817;23;20169;-78
2021/01/26 08:16:33;;;;;;;2.30;1.13;;;16.60;42.70;;;;;;6176055;23;20193;-78
2021/01/26 08:19:01;;;;;;;2.33;1.15;;;16.70;42.30;;;;;;6229244;23;20130;-79
2021/01/26 08:21:45;;;;;;;1.67;1.00;;;16.70;42.40;;;;;;6203706;23;20153;-77
2021/01/26 08:24:21;;;;;;;2.85;0.80;;;16.70;42.30;;;;;;6230804;23;20134;-77
2021/01/26 08:27:27;;;;;;;2.38;1.23;;;16.70;42.20;;;;;;6204631;23;20177;-76
2021/01/26 08:29:56;;;;;;;2.13;1.00;;;16.70;42.30;;;;;;6201241;23;20157;-76
2021/01/26 08:32:22;;;;;;;1.83;1.02;;;16.70;42.30;;;;;;6177115;23;20562;-77
2021/01/26 08:35:07;;;;;;;3.20;1.20;;;16.70;42.20;;;;;;6229531;23;20200;-77
2021/01/26 08:37:42;;;;;;;3.40;0.82;;;16.70;42.00;;;;;;6229374;23;20165;-77
2021/01/26 08:40:28;;;;;;;3.03;1.15;;;16.80;41.90;;;;;;6203682;23;20149;-76
2021/01/26 08:42:54;;;;;;;1.65;0.95;;;16.80;41.90;;;;;;6198954;23;20154;-77
2021/01/26 08:45:26;;;;;;;1.83;0.75;;;16.90;41.80;;;;;;6204336;23;20165;-76
2021/01/26 08:47:59;;;;;;;1.38;0.95;;;16.80;41.90;;;;;;6204031;23;20146;-76
2021/01/26 08:50:36;;;;;;;1.48;1.00;;;16.80;42.00;;;;;;6203567;23;20150;-77
2021/01/26 08:53:19;;;;;;;1.80;0.77;;;16.80;41.90;;;;;;6179707;23;20168;-77
2021/01/26 08:55:56;;;;;;;1.55;0.90;;;16.80;41.90;;;;;;6230889;23;20134;-76
2021/01/26 08:58:57;;;;;;;2.53;1.13;;;16.80;41.90;;;;;;6203698;23;20150;-76
2021/01/26 09:01:23;;;;;;;2.53;1.20;;;16.80;42.10;;;;;;6204098;23;20201;-75
2021/01/26 09:03:51;;;;;;;1.30;0.70;;;16.80;42.30;;;;;;6204301;23;20145;-77
2021/01/26 09:06:38;;;;;;;1.38;0.80;;;16.80;41.90;;;;;;6201192;23;20153;-77
2021/01/26 09:09:09;;;;;;;3.15;0.90;;;16.90;41.80;;;;;;6202855;23;20145;-76
2021/01/26 09:11:45;;;;;;;3.25;1.00;;;16.90;41.60;;;;;;6200178;23;20137;-77
2021/01/26 09:14:44;;;;;;;10.43;1.20;;;16.90;41.70;;;;;;6226452;23;20228;-77
2021/01/26 09:17:31;;;;;;;6.13;1.20;;;16.90;41.60;;;;;;6054856;23;20232;-78
2021/01/26 09:20:10;;;;;;;9.63;1.58;;;17.00;41.50;;;;;;6053280;23;20149;-77
2021/01/26 09:22:41;;;;;;;5.82;1.35;;;17.10;41.40;;;;;;6056352;23;20134;-80
2021/01/26 09:25:29;;;;;;;3.72;1.10;;;17.00;41.60;;;;;;6057236;23;20142;-77
2021/01/26 09:28:10;;;;;;;7.13;1.27;;;17.10;41.50;;;;;;6052160;23;20156;-80
2021/01/26 09:30:39;;;;;;;1.63;0.90;;;17.10;41.40;;;;;;6053389;23;20237;-79
2021/01/26 09:33:11;;;;;;;2.55;1.15;;;17.00;41.70;;;;;;6054067;23;20211;-81
2021/01/26 09:35:42;;;;;;;4.10;1.08;;;17.00;42.10;;;;;;6077460;23;20212;-79
2021/01/26 09:38:22;;;;;;;4.40;1.10;;;17.00;42.20;;;;;;6028002;23;20156;-82
2021/01/26 09:40:59;;;;;;;8.05;1.50;;;17.10;41.90;;;;;;6053258;23;20626;-81
2021/01/26 09:43:57;;;;;;;7.45;1.30;;;17.00;42.00;;;;;;6052942;23;20238;-80
2021/01/26 09:46:26;;;;;;;8.82;1.20;;;17.10;41.80;;;;;;6077564;23;20168;-79
2021/01/26 09:48:54;;;;;;;4.65;0.85;;;17.10;42.20;;;;;;6028741;23;20172;-81
2021/01/26 09:51:23;;;;;;;4.68;1.10;;;17.10;42.30;;;;;;6050848;23;20606;-80
2021/01/26 09:54:11;;;;;;;4.70;1.15;;;17.10;42.30;;;;;;6164537;23;20186;-83
2021/01/26 09:56:38;;;;;;;20.88;1.98;;;17.20;41.70;;;;;;6172927;23;20131;-83
2021/01/26 09:59:25;;;;;;;32.45;3.08;;;17.20;41.70;;;;;;6171295;23;20135;-81
2021/01/26 10:01:52;;;;;;;54.97;4.32;;;17.20;41.90;;;;;;6169409;23;20139;-81
2021/01/26 10:04:18;;;;;;;58.90;4.05;;;17.10;42.10;;;;;;6147322;23;20139;-80
2021/01/26 10:06:44;;;;;;;47.97;3.55;;;17.10;42.20;;;;;;6146631;23;20131;-82
2021/01/26 10:09:31;;;;;;;46.95;3.20;;;17.00;42.40;;;;;;6170482;23;20213;-83
2021/01/26 10:12:16;;;;;;;30.67;2.30;;;17.00;42.50;;;;;;6193090;23;20146;-82
2021/01/26 10:14:42;;;;;;;27.73;3.05;;;16.90;42.50;;;;;;6193126;23;20174;-78
2021/01/26 10:17:12;;;;;;;33.08;3.58;;;16.90;42.10;;;;;;6191565;23;20159;-78
2021/01/26 10:19:38;;;;;;;21.92;2.10;;;17.10;42.20;;;;;;6173058;23;20213;-80
2021/01/26 10:22:26;;;;;;;16.98;2.13;;;17.00;42.30;;;;;;6170831;23;20150;-79
2021/01/26 10:24:52;;;;;;;22.58;1.67;;;17.10;42.10;;;;;;6171822;23;20161;-80
2021/01/26 10:27:23;;;;;;;13.82;1.80;;;17.20;42.10;;;;;;6172478;23;20206;-77
2021/01/26 10:29:49;;;;;;;11.10;1.80;;;17.10;42.10;;;;;;6147565;23;20578;-78
2021/01/26 10:32:36;;;;;;;18.52;2.22;;;17.10;42.20;;;;;;6172533;23;20135;-79
2021/01/26 10:35:02;;;;;;;13.30;2.20;;;17.00;42.40;;;;;;6211039;23;20216;-80
2021/01/26 10:37:30;;;;;;;14.02;2.00;;;16.90;42.50;;;;;;6154809;23;20158;-81
2021/01/26 10:40:14;;;;;;;12.88;1.42;;;16.90;42.10;;;;;;6178715;23;20632;-80
2021/01/26 10:42:41;;;;;;;23.88;2.00;;;17.10;42.40;;;;;;6202976;23;20224;-81
2021/01/26 10:45:07;;;;;;;15.30;1.85;;;17.00;42.40;;;;;;6154121;23;20142;-79
2021/01/26 10:47:35;;;;;;;17.13;2.40;;;17.00;43.10;;;;;;6178232;23;20149;-80
2021/01/26 10:50:15;;;;;;;16.65;2.17;;;17.00;42.50;;;;;;6178191;23;20153;-79
2021/01/26 10:52:47;;;;;;;9.10;1.88;;;17.00;42.60;;;;;;6178529;23;20142;-80
2021/01/26 10:55:18;;;;;;;11.00;2.00;;;17.00;42.60;;;;;;6177236;23;20180;-80
2021/01/26 10:57:45;;;;;;;13.55;1.85;;;17.00;42.50;;;;;;6179356;23;20134;-80
2021/01/26 11:00:17;;;;;;;11.48;2.00;;;17.00;42.40;;;;;;6153828;23;20276;-80
2021/01/26 11:02:43;;;;;;;11.10;1.58;;;17.00;42.40;;;;;;6179484;23;20149;-81
2021/01/26 11:05:10;;;;;;;7.72;1.77;;;17.00;42.20;;;;;;6151800;23;20142;-80
2021/01/26 11:07:36;;;;;;;10.50;1.80;;;17.10;42.10;;;;;;6151528;23;20146;-78
2021/01/26 11:10:14;;;;;;;16.50;1.80;;;17.10;42.30;;;;;;6177140;23;20180;-81
2021/01/26 11:12:40;;;;;;;11.55;1.67;;;17.00;42.40;;;;;;6203488;23;20673;-80
2021/01/26 11:15:10;;;;;;;10.52;1.50;;;17.00;42.40;;;;;;6227498;23;20162;-77
2021/01/26 11:17:43;;;;;;;11.77;1.52;;;16.90;42.60;;;;;;6202129;23;20201;-78
2021/01/26 11:20:11;;;;;;;9.38;1.67;;;16.90;42.60;;;;;;6178472;23;20150;-78
2021/01/26 11:22:37;;;;;;;10.40;1.20;;;16.90;42.70;;;;;;6229338;23;20134;-78
2021/01/26 11:25:05;;;;;;;8.88;1.40;;;16.90;42.80;;;;;;6203265;23;20192;-79
2021/01/26 11:27:32;;;;;;;10.88;1.67;;;17.00;42.60;;;;;;6229395;23;20140;-78
2021/01/26 11:29:58;;;;;;;12.57;1.50;;;17.00;42.50;;;;;;6176262;23;20505;-79
2021/01/26 11:32:28;;;;;;;6.13;1.58;;;17.00;42.40;;;;;;6175317;23;20249;-78
2021/01/26 11:34:59;;;;;;;11.07;1.40;;;17.00;43.00;;;;;;6147663;23;20202;-79
2021/01/26 11:37:27;;;;;;;7.28;1.58;;;17.00;42.90;;;;;;6171837;23;20206;-77
2021/01/26 11:39:53;;;;;;;4.90;1.20;;;17.10;42.10;;;;;;6196897;23;20563;-78
2021/01/26 11:42:19;;;;;;;8.88;1.27;;;17.10;42.20;;;;;;6195606;23;20186;-77
2021/01/26 11:44:45;;;;;;;6.13;1.15;;;17.10;42.10;;;;;;6200129;23;20150;-77
2021/01/26 11:47:12;;;;;;;3.28;1.27;;;17.10;42.10;;;;;;6195438;23;20127;-78
2021/01/26 11:49:38;;;;;;;7.90;1.35;;;17.00;42.30;;;;;;6198521;23;20131;-79
2021/01/26 11:52:05;;;;;;;4.97;1.45;;;17.00;42.20;;;;;;6198887;23;20135;-77
2021/01/26 11:54:39;;;;;;;9.27;1.70;;;17.10;42.20;;;;;;6173969;23;20186;-78
2021/01/26 11:57:07;;;;;;;4.35;1.08;;;17.00;42.80;;;;;;6171061;23;20138;-80
2021/01/26 11:59:42;;;;;;;7.15;1.27;;;17.10;42.10;;;;;;6196248;23;20150;-77
2021/01/26 12:02:08;;;;;;;7.63;1.42;;;17.00;42.20;;;;;;6192525;23;20244;-79
2021/01/26 12:04:36;;;;;;;5.68;1.13;;;17.10;42.10;;;;;;6169168;23;20518;-79
2021/01/26 12:07:02;;;;;;;2.92;0.98;;;17.00;42.20;;;;;;6191376;23;20143;-77
2021/01/26 12:09:36;;;;;;;8.10;1.30;;;17.00;42.60;;;;;;6190031;23;20138;-78
2021/01/26 12:12:03;;;;;;;8.98;1.20;;;17.00;42.60;;;;;;6197030;23;20130;-78
2021/01/26 12:14:29;;;;;;;5.32;1.58;;;16.90;42.90;;;;;;6168585;23;20185;-80
2021/01/26 12:16:56;;;;;;;6.63;1.25;;;16.90;42.90;;;;;;6194090;23;20131;-79
2021/01/26 12:19:23;;;;;;;3.30;0.90;;;16.90;43.00;;;;;;6196766;23;20195;-79
2021/01/26 12:22:00;;;;;;;5.10;1.27;;;16.90;42.30;;;;;;6198654;23;20146;-80
2021/01/26 12:24:26;;;;;;;8.35;1.48;;;17.00;42.40;;;;;;6194188;23;20147;-77
2021/01/26 12:26:54;;;;;;;5.40;0.98;;;17.10;42.30;;;;;;6196352;23;20195;-78
2021/01/26 12:29:20;;;;;;;2.38;1.00;;;17.10;42.10;;;;;;6198487;23;20135;-78
2021/01/26 12:31:47;;;;;;;3.75;1.02;;;17.20;41.90;;;;;;6193401;23;20146;-79
2021/01/26 12:34:14;;;;;;;4.70;1.10;;;17.20;42.40;;;;;;6193358;23;20171;-79
2021/01/26 12:36:41;;;;;;;2.47;1.10;;;17.20;41.50;;;;;;6220064;23;20197;-77
2021/01/26 12:39:07;;;;;;;3.38;1.30;;;17.30;41.60;;;;;;6196487;23;20192;-78
2021/01/26 12:41:41;;;;;;;3.33;1.00;;;17.40;41.30;;;;;;6195833;23;20140;-78
2021/01/26 12:44:16;;;;;;;5.20;1.27;;;17.40;41.10;;;;;;6218911;23;20134;-77
2021/01/26 12:46:43;;;;;;;1.83;1.00;;;17.40;41.00;;;;;;6222193;23;20126;-77
2021/01/26 12:49:16;;;;;;;6.32;1.10;;;17.40;41.10;;;;;;6227300;23;20137;-77
2021/01/26 12:51:43;;;;;;;2.95;1.17;;;17.50;41.20;;;;;;6228232;23;20522;-77
2021/01/26 12:54:10;;;;;;;4.82;1.25;;;17.50;41.00;;;;;;6198535;23;20174;-77
2021/01/26 12:56:36;;;;;;;3.63;1.00;;;17.50;40.90;;;;;;6225708;23;20201;-77
2021/01/26 12:59:03;;;;;;;2.85;0.80;;;17.50;41.00;;;;;;6197899;23;20551;-77
2021/01/26 13:01:30;;;;;;;2.22;0.93;;;17.60;40.80;;;;;;6199475;23;20131;-77
2021/01/26 13:04:04;;;;;;;2.47;1.10;;;17.50;41.20;;;;;;6201001;23;20189;-78
2021/01/26 13:06:31;;;;;;;2.85;1.13;;;17.40;41.20;;;;;;6197280;23;20191;-76
2021/01/26 13:08:57;;;;;;;3.65;0.85;;;17.40;41.70;;;;;;6221214;23;20144;-79
2021/01/26 13:11:33;;;;;;;2.05;1.05;;;17.50;41.20;;;;;;6195353;23;20130;-78
2021/01/26 13:13:59;;;;;;;4.97;1.10;;;17.50;41.30;;;;;;6225826;23;20177;-78
2021/01/26 13:16:26;;;;;;;2.67;1.13;;;17.40;41.50;;;;;;6227191;23;20562;-78
2021/01/26 13:18:52;;;;;;;2.45;0.98;;;17.40;41.10;;;;;;6197756;23;20145;-78
2021/01/26 13:21:19;;;;;;;2.05;0.88;;;17.60;40.80;;;;;;6226486;23;20136;-79
2021/01/26 13:23:46;;;;;;;1.17;0.70;;;17.60;40.60;;;;;;6199719;23;20138;-77
2021/01/26 13:26:12;;;;;;;3.20;0.95;;;17.60;40.80;;;;;;6223382;23;20130;-78
2021/01/26 13:28:39;;;;;;;5.43;1.25;;;17.60;41.50;;;;;;6226478;23;20138;-79